sensor_id;sensor_type;location;lat;lon;timestamp;pressure;altitude;pressure_sealevel;temperature;humidity
46598;BME280;32318;48.858;8.252;2023-12-20T00:04:56;100439.22;;;5.22;96.83
46598;BME280;32318;48.858;8.252;2023-12-20T00:12:56;100441.28;;;5.18;98.66
46598;BME280;32318;48.858;8.252;2023-12-20T00:20:56;100430.13;;;5.15;99.23
46598;BME280;32318;48.858;8.252;2023-12-20T00:28:56;100435.28;;;5.16;98.12
46598;BME280;32318;48.858;8.252;2023-12-20T00:36:57;100426.75;;;5.13;98.94
46598;BME280;32318;48.858;8.252;2023-12-20T00:44:58;100450.56;;;5.13;100.00
46598;BME280;32318;48.858;8.252;2023-12-20T00:52:59;100460.19;;;5.14;99.16
46598;BME280;32318;48.858;8.252;2023-12-20T01:00:59;100461.28;;;5.11;99.15
46598;BME280;32318;48.858;8.252;2023-12-20T01:08:59;100460.41;;;5.11;100.00
46598;BME280;32318;48.858;8.252;2023-12-20T01:17:00;100437.56;;;5.10;99.11
46598;BME280;32318;48.858;8.252;2023-12-20T01:25:00;100434.53;;;5.14;100.00
46598;BME280;32318;48.858;8.252;2023-12-20T01:33:00;100418.94;;;5.11;100.00
46598;BME280;32318;48.858;8.252;2023-12-20T01:41:01;100431.44;;;5.09;100.00
46598;BME280;32318;48.858;8.252;2023-12-20T01:49:02;100445.41;;;5.11;100.00
46598;BME280;32318;48.858;8.252;2023-12-20T01:57:02;100434.81;;;5.11;100.00
46598;BME280;32318;48.858;8.252;2023-12-20T02:05:03;100429.25;;;5.14;100.00
46598;BME280;32318;48.858;8.252;2023-12-20T02:13:04;100428.44;;;5.14;100.00
46598;BME280;32318;48.858;8.252;2023-12-20T02:21:05;100428.28;;;5.15;100.00
46598;BME280;32318;48.858;8.252;2023-12-20T02:29:05;100427.34;;;5.16;100.00
46598;BME280;32318;48.858;8.252;2023-12-20T02:37:06;100422.03;;;5.16;100.00
46598;BME280;32318;48.858;8.252;2023-12-20T02:45:07;100430.56;;;5.20;100.00
46598;BME280;32318;48.858;8.252;2023-12-20T02:53:08;100438.38;;;5.22;100.00
46598;BME280;32318;48.858;8.252;2023-12-20T03:01:08;100454.84;;;5.25;100.00
46598;BME280;32318;48.858;8.252;2023-12-20T03:09:08;100449.69;;;5.24;100.00
46598;BME280;32318;48.858;8.252;2023-12-20T03:17:09;100477.84;;;5.25;100.00
46598;BME280;32318;48.858;8.252;2023-12-20T03:25:09;100459.53;;;5.22;100.00
46598;BME280;32318;48.858;8.252;2023-12-20T03:33:09;100469.19;;;5.23;100.00
46598;BME280;32318;48.858;8.252;2023-12-20T03:41:11;100462.19;;;5.22;100.00
46598;BME280;32318;48.858;8.252;2023-12-20T03:49:12;100468.94;;;5.26;100.00
46598;BME280;32318;48.858;8.252;2023-12-20T03:57:12;100483.72;;;5.28;100.00
46598;BME280;32318;48.858;8.252;2023-12-20T04:05:12;100469.53;;;5.29;100.00
46598;BME280;32318;48.858;8.252;2023-12-20T04:13:13;100497.56;;;5.32;100.00
46598;BME280;32318;48.858;8.252;2023-12-20T04:21:13;100493.13;;;5.32;100.00
46598;BME280;32318;48.858;8.252;2023-12-20T04:29:13;100503.56;;;5.34;100.00
46598;BME280;32318;48.858;8.252;2023-12-20T04:37:13;100507.19;;;5.33;100.00
46598;BME280;32318;48.858;8.252;2023-12-20T04:45:14;100512.34;;;5.34;100.00
46598;BME280;32318;48.858;8.252;2023-12-20T04:53:15;100506.94;;;5.36;100.00
46598;BME280;32318;48.858;8.252;2023-12-20T05:01:16;100526.44;;;5.35;100.00
46598;BME280;32318;48.858;8.252;2023-12-20T05:09:17;100520.28;;;5.34;100.00
46598;BME280;32318;48.858;8.252;2023-12-20T05:17:17;100528.13;;;5.36;100.00
46598;BME280;32318;48.858;8.252;2023-12-20T05:25:18;100531.47;;;5.38;100.00
46598;BME280;32318;48.858;8.252;2023-12-20T05:33:18;100535.13;;;5.37;100.00
46598;BME280;32318;48.858;8.252;2023-12-20T05:41:19;100558.81;;;5.39;100.00
46598;BME280;32318;48.858;8.252;2023-12-20T05:49:19;100570.38;;;5.38;100.00
46598;BME280;32318;48.858;8.252;2023-12-20T05:57:19;100573.84;;;5.38;100.00
46598;BME280;32318;48.858;8.252;2023-12-20T06:05:20;100573.75;;;5.40;100.00
46598;BME280;32318;48.858;8.252;2023-12-20T06:13:20;100589.63;;;5.40;100.00
46598;BME280;32318;48.858;8.252;2023-12-20T06:21:20;100602.00;;;5.39;100.00
46598;BME280;32318;48.858;8.252;2023-12-20T06:29:21;100617.06;;;5.39;100.00
46598;BME280;32318;48.858;8.252;2023-12-20T06:37:21;100625.00;;;5.39;100.00
46598;BME280;32318;48.858;8.252;2023-12-20T06:45:21;100627.44;;;5.42;100.00
46598;BME280;32318;48.858;8.252;2023-12-20T06:53:22;100620.44;;;5.41;100.00
46598;BME280;32318;48.858;8.252;2023-12-20T07:01:22;100640.53;;;5.43;100.00
46598;BME280;32318;48.858;8.252;2023-12-20T07:09:23;100671.44;;;5.43;100.00
46598;BME280;32318;48.858;8.252;2023-12-20T07:17:24;100695.63;;;5.38;100.00
46598;BME280;32318;48.858;8.252;2023-12-20T07:25:25;100694.69;;;5.28;100.00
46598;BME280;32318;48.858;8.252;2023-12-20T07:33:25;100698.28;;;5.15;100.00
46598;BME280;32318;48.858;8.252;2023-12-20T07:41:25;100707.13;;;5.03;100.00
46598;BME280;32318;48.858;8.252;2023-12-20T07:49:25;100711.22;;;4.96;100.00
46598;BME280;32318;48.858;8.252;2023-12-20T07:57:29;100702.31;;;4.85;100.00
46598;BME280;32318;48.858;8.252;2023-12-20T08:05:29;100728.97;;;4.82;100.00
46598;BME280;32318;48.858;8.252;2023-12-20T08:13:29;100742.44;;;4.79;100.00
46598;BME280;32318;48.858;8.252;2023-12-20T08:21:30;100750.34;;;4.79;100.00
46598;BME280;32318;48.858;8.252;2023-12-20T08:29:30;100752.31;;;4.89;100.00
46598;BME280;32318;48.858;8.252;2023-12-20T08:37:31;100750.19;;;4.94;100.00
46598;BME280;32318;48.858;8.252;2023-12-20T08:45:31;100775.94;;;5.03;100.00
46598;BME280;32318;48.858;8.252;2023-12-20T08:53:31;100783.72;;;5.17;100.00
46598;BME280;32318;48.858;8.252;2023-12-20T09:01:32;100771.72;;;5.36;100.00
46598;BME280;32318;48.858;8.252;2023-12-20T09:09:32;100763.44;;;5.41;98.83
46598;BME280;32318;48.858;8.252;2023-12-20T09:17:32;100754.28;;;5.45;96.93
46598;BME280;32318;48.858;8.252;2023-12-20T09:25:32;100758.25;;;5.50;95.84
46598;BME280;32318;48.858;8.252;2023-12-20T09:33:33;100741.53;;;5.50;94.48
46598;BME280;32318;48.858;8.252;2023-12-20T09:41:37;100763.19;;;5.55;94.83
46598;BME280;32318;48.858;8.252;2023-12-20T09:49:38;100760.69;;;5.54;94.18
46598;BME280;32318;48.858;8.252;2023-12-20T09:57:39;100769.22;;;5.57;93.40
46598;BME280;32318;48.858;8.252;2023-12-20T10:05:42;100764.06;;;5.67;93.94
46598;BME280;32318;48.858;8.252;2023-12-20T10:13:43;100759.22;;;5.72;92.71
46598;BME280;32318;48.858;8.252;2023-12-20T10:21:43;100754.31;;;5.79;92.39
46598;BME280;32318;48.858;8.252;2023-12-20T10:29:44;100736.63;;;5.79;90.33
46598;BME280;32318;48.858;8.252;2023-12-20T10:37:45;100740.59;;;5.85;90.57
46598;BME280;32318;48.858;8.252;2023-12-20T10:45:45;100734.06;;;5.89;90.09
46598;BME280;32318;48.858;8.252;2023-12-20T10:53:47;100706.97;;;5.97;90.27
46598;BME280;32318;48.858;8.252;2023-12-20T11:01:50;100707.78;;;5.97;85.78
46598;BME280;32318;48.858;8.252;2023-12-20T11:10:00;100700.69;;;6.09;86.32
46598;BME280;32318;48.858;8.252;2023-12-20T11:18:03;100692.97;;;6.18;85.64
46598;BME280;32318;48.858;8.252;2023-12-20T11:26:04;100689.84;;;6.24;84.59
46598;BME280;32318;48.858;8.252;2023-12-20T11:34:13;100693.44;;;6.23;82.86
46598;BME280;32318;48.858;8.252;2023-12-20T11:42:14;100687.94;;;6.15;83.05
46598;BME280;32318;48.858;8.252;2023-12-20T11:50:17;100681.69;;;6.04;83.99
46598;BME280;32318;48.858;8.252;2023-12-20T11:58:17;100690.59;;;6.03;83.62
46598;BME280;32318;48.858;8.252;2023-12-20T12:06:17;100699.88;;;6.09;84.59
46598;BME280;32318;48.858;8.252;2023-12-20T12:14:17;100677.56;;;6.11;84.51
46598;BME280;32318;48.858;8.252;2023-12-20T12:22:19;100667.19;;;6.20;84.27
46598;BME280;32318;48.858;8.252;2023-12-20T12:30:20;100661.94;;;6.30;83.15
46598;BME280;32318;48.858;8.252;2023-12-20T12:38:21;100666.88;;;6.34;83.56
46598;BME280;32318;48.858;8.252;2023-12-20T12:46:21;100660.66;;;6.24;83.91
46598;BME280;32318;48.858;8.252;2023-12-20T12:54:21;100652.97;;;6.21;84.17
46598;BME280;32318;48.858;8.252;2023-12-20T13:02:22;100653.34;;;6.16;82.25
46598;BME280;32318;48.858;8.252;2023-12-20T13:10:22;100655.13;;;6.16;81.63
46598;BME280;32318;48.858;8.252;2023-12-20T13:18:22;100658.03;;;6.12;80.99
46598;BME280;32318;48.858;8.252;2023-12-20T13:26:23;100648.63;;;6.08;81.71
46598;BME280;32318;48.858;8.252;2023-12-20T13:34:23;100645.28;;;6.06;81.86
46598;BME280;32318;48.858;8.252;2023-12-20T13:42:23;100628.66;;;6.04;81.73
46598;BME280;32318;48.858;8.252;2023-12-20T13:50:24;100616.38;;;6.03;81.61
46598;BME280;32318;48.858;8.252;2023-12-20T13:58:24;100611.06;;;6.03;81.96
46598;BME280;32318;48.858;8.252;2023-12-20T14:06:24;100608.56;;;6.02;81.69
46598;BME280;32318;48.858;8.252;2023-12-20T14:14:24;100593.72;;;5.99;81.67
46598;BME280;32318;48.858;8.252;2023-12-20T14:22:24;100602.41;;;6.01;82.93
46598;BME280;32318;48.858;8.252;2023-12-20T14:30:25;100594.69;;;5.98;82.88
46598;BME280;32318;48.858;8.252;2023-12-20T14:38:25;100587.13;;;5.93;83.29
46598;BME280;32318;48.858;8.252;2023-12-20T14:46:26;100597.00;;;5.91;83.01
46598;BME280;32318;48.858;8.252;2023-12-20T14:54:26;100606.50;;;5.94;82.83
46598;BME280;32318;48.858;8.252;2023-12-20T15:02:26;100598.69;;;5.92;82.04
46598;BME280;32318;48.858;8.252;2023-12-20T15:10:27;100609.50;;;5.89;83.19
46598;BME280;32318;48.858;8.252;2023-12-20T15:18:27;100603.63;;;5.86;83.86
46598;BME280;32318;48.858;8.252;2023-12-20T15:26:27;100602.69;;;5.75;85.89
46598;BME280;32318;48.858;8.252;2023-12-20T15:34:29;100597.88;;;5.69;87.48
46598;BME280;32318;48.858;8.252;2023-12-20T15:42:29;100577.94;;;5.54;89.77
46598;BME280;32318;48.858;8.252;2023-12-20T15:50:31;100571.69;;;5.43;90.93
46598;BME280;32318;48.858;8.252;2023-12-20T15:58:32;100573.25;;;5.34;92.22
46598;BME280;32318;48.858;8.252;2023-12-20T16:06:33;100556.28;;;5.37;91.79
46598;BME280;32318;48.858;8.252;2023-12-20T16:14:34;100579.41;;;5.35;92.70
46598;BME280;32318;48.858;8.252;2023-12-20T16:22:34;100575.44;;;5.29;93.40
46598;BME280;32318;48.858;8.252;2023-12-20T16:30:35;100569.75;;;5.23;94.36
46598;BME280;32318;48.858;8.252;2023-12-20T16:38:35;100556.06;;;5.29;94.06
46598;BME280;32318;48.858;8.252;2023-12-20T16:46:35;100571.81;;;5.30;93.33
46598;BME280;32318;48.858;8.252;2023-12-20T16:54:36;100566.25;;;5.33;92.05
46598;BME280;32318;48.858;8.252;2023-12-20T17:02:36;100563.25;;;5.38;92.04
46598;BME280;32318;48.858;8.252;2023-12-20T17:10:36;100555.19;;;5.40;91.73
46598;BME280;32318;48.858;8.252;2023-12-20T17:18:37;100545.06;;;5.45;90.35
46598;BME280;32318;48.858;8.252;2023-12-20T17:26:38;100544.94;;;5.46;89.25
46598;BME280;32318;48.858;8.252;2023-12-20T17:34:38;100550.13;;;5.48;88.47
46598;BME280;32318;48.858;8.252;2023-12-20T17:42:39;100536.63;;;5.51;88.57
46598;BME280;32318;48.858;8.252;2023-12-20T17:50:39;100551.19;;;5.57;88.12
46598;BME280;32318;48.858;8.252;2023-12-20T17:58:39;100540.72;;;5.55;87.84
46598;BME280;32318;48.858;8.252;2023-12-20T18:06:39;100551.06;;;5.58;87.49
46598;BME280;32318;48.858;8.252;2023-12-20T18:14:40;100544.78;;;5.59;86.93
46598;BME280;32318;48.858;8.252;2023-12-20T18:22:41;100542.28;;;5.58;86.04
46598;BME280;32318;48.858;8.252;2023-12-20T18:30:41;100523.50;;;5.61;85.91
46598;BME280;32318;48.858;8.252;2023-12-20T18:38:42;100538.66;;;5.59;87.30
46598;BME280;32318;48.858;8.252;2023-12-20T18:46:43;100537.56;;;5.61;86.99
46598;BME280;32318;48.858;8.252;2023-12-20T18:54:44;100526.50;;;5.56;87.48
46598;BME280;32318;48.858;8.252;2023-12-20T19:02:44;100523.72;;;5.58;87.26
46598;BME280;32318;48.858;8.252;2023-12-20T19:10:44;100509.31;;;5.50;88.11
46598;BME280;32318;48.858;8.252;2023-12-20T19:18:45;100494.63;;;5.46;90.21
46598;BME280;32318;48.858;8.252;2023-12-20T19:26:46;100496.94;;;5.40;90.16
46598;BME280;32318;48.858;8.252;2023-12-20T19:34:46;100487.69;;;5.34;90.91
46598;BME280;32318;48.858;8.252;2023-12-20T19:42:46;100459.06;;;5.28;90.89
46598;BME280;32318;48.858;8.252;2023-12-20T19:50:47;100463.41;;;5.29;91.00
46598;BME280;32318;48.858;8.252;2023-12-20T19:58:51;100466.16;;;5.27;90.40
46598;BME280;32318;48.858;8.252;2023-12-20T20:06:51;100451.97;;;5.28;90.49
46598;BME280;32318;48.858;8.252;2023-12-20T20:14:52;100482.63;;;5.31;89.20
46598;BME280;32318;48.858;8.252;2023-12-20T20:22:53;100469.97;;;5.34;89.39
46598;BME280;32318;48.858;8.252;2023-12-20T20:30:56;100450.63;;;5.34;89.53
46598;BME280;32318;48.858;8.252;2023-12-20T20:38:57;100441.38;;;5.28;89.78
46598;BME280;32318;48.858;8.252;2023-12-20T20:46:57;100430.41;;;5.33;90.05
46598;BME280;32318;48.858;8.252;2023-12-20T20:54:57;100434.75;;;5.34;89.38
46598;BME280;32318;48.858;8.252;2023-12-20T21:02:59;100406.34;;;5.36;88.53
46598;BME280;32318;48.858;8.252;2023-12-20T21:11:00;100420.28;;;5.38;89.76
46598;BME280;32318;48.858;8.252;2023-12-20T21:19:00;100397.09;;;5.30;90.72
46598;BME280;32318;48.858;8.252;2023-12-20T21:27:01;100381.44;;;5.27;91.23
46598;BME280;32318;48.858;8.252;2023-12-20T21:35:02;100357.50;;;5.29;91.10
46598;BME280;32318;48.858;8.252;2023-12-20T21:43:03;100355.84;;;5.28;91.59
46598;BME280;32318;48.858;8.252;2023-12-20T21:51:03;100342.31;;;5.31;90.93
46598;BME280;32318;48.858;8.252;2023-12-20T21:59:03;100320.69;;;5.26;90.85
46598;BME280;32318;48.858;8.252;2023-12-20T22:07:04;100309.72;;;5.30;90.07
46598;BME280;32318;48.858;8.252;2023-12-20T22:15:07;100302.38;;;5.34;90.52
46598;BME280;32318;48.858;8.252;2023-12-20T22:23:10;100308.97;;;5.40;88.66
46598;BME280;32318;48.858;8.252;2023-12-20T22:31:11;100324.72;;;5.41;88.98
46598;BME280;32318;48.858;8.252;2023-12-20T22:39:11;100306.75;;;5.45;89.17
46598;BME280;32318;48.858;8.252;2023-12-20T22:47:11;100287.09;;;5.47;89.07
46598;BME280;32318;48.858;8.252;2023-12-20T22:55:12;100272.59;;;5.42;90.10
46598;BME280;32318;48.858;8.252;2023-12-20T23:03:12;100249.22;;;5.47;89.14
46598;BME280;32318;48.858;8.252;2023-12-20T23:11:12;100249.06;;;5.48;89.90
46598;BME280;32318;48.858;8.252;2023-12-20T23:19:13;100234.28;;;5.46;90.11
46598;BME280;32318;48.858;8.252;2023-12-20T23:27:13;100224.13;;;5.51;89.85
46598;BME280;32318;48.858;8.252;2023-12-20T23:35:13;100219.69;;;5.52;89.66
46598;BME280;32318;48.858;8.252;2023-12-20T23:43:13;100201.22;;;5.40;91.90
46598;BME280;32318;48.858;8.252;2023-12-20T23:51:14;100207.59;;;5.28;93.72
46598;BME280;32318;48.858;8.252;2023-12-20T23:59:14;100186.28;;;5.29;93.20
